createdAt,value
2018-09-06T00:02:11.678Z,95308.51
2018-09-06T00:04:40.148Z,95312.39
2018-09-06T00:07:08.550Z,95308.78
2018-09-06T00:09:37.010Z,95308.52
2018-09-06T00:12:05.503Z,95312.83
2018-09-06T00:14:33.997Z,95309.27
2018-09-06T00:17:02.418Z,95310.28
2018-09-06T00:19:30.863Z,95308.71
2018-09-06T00:21:59.292Z,95303.63
2018-09-06T00:24:27.778Z,95304.48
2018-09-06T00:26:56.181Z,95297.87
2018-09-06T00:29:24.598Z,95294.79
2018-09-06T00:31:53.013Z,95297.39
2018-09-06T00:34:21.429Z,95290.61
2018-09-06T00:36:49.834Z,95293.06
2018-09-06T00:39:18.409Z,95288.29
2018-09-06T00:41:46.814Z,95287.34
2018-09-06T00:44:15.314Z,95287.86
2018-09-06T00:46:43.725Z,95287.18
2018-09-06T00:49:12.248Z,95287.19
2018-09-06T00:51:40.670Z,95292.11
2018-09-06T00:54:09.069Z,95293.60
2018-09-06T00:56:37.511Z,95286.38
2018-09-06T00:59:05.942Z,95285.53
2018-09-06T01:01:34.603Z,95286.52
2018-09-06T01:04:03.147Z,95282.69
2018-09-06T01:06:31.590Z,95279.62
2018-09-06T01:08:59.982Z,95283.11
2018-09-06T01:11:28.441Z,95276.41
2018-09-06T01:13:56.881Z,95271.15
2018-09-06T01:16:25.325Z,95272.34
2018-09-06T01:18:53.763Z,95270.84
2018-09-06T01:21:22.201Z,95271.81
2018-09-06T01:23:50.665Z,95270.81
2018-09-06T01:26:19.090Z,95268.52
2018-09-06T01:28:47.489Z,95263.47
2018-09-06T01:31:16.489Z,95263.80
2018-09-06T01:33:44.872Z,95274.14
2018-09-06T01:36:18.581Z,95269.55
2018-09-06T01:38:47.002Z,95268.08
2018-09-06T01:41:15.445Z,95266.28
2018-09-06T01:43:43.865Z,95259.88
2018-09-06T01:46:12.245Z,95264.45
2018-09-06T01:48:40.662Z,95259.63
2018-09-06T01:51:09.081Z,95262.83
2018-09-06T01:53:37.506Z,95257.61
2018-09-06T01:56:05.929Z,95257.45
2018-09-06T01:58:34.350Z,95260.39
2018-09-06T02:01:02.744Z,95262.91
2018-09-06T02:03:31.189Z,95259.30
2018-09-06T02:05:59.625Z,95260.42
2018-09-06T02:08:28.085Z,95248.33
2018-09-06T02:10:56.472Z,95257.34
2018-09-06T02:13:24.886Z,95257.70
2018-09-06T02:15:53.296Z,95256.05
2018-09-06T02:18:21.736Z,95259.82
2018-09-06T02:20:50.130Z,95259.48
2018-09-06T02:23:18.619Z,95259.95
2018-09-06T02:25:47.057Z,95253.56
2018-09-06T02:28:15.649Z,95252.91
2018-09-06T02:30:44.081Z,95250.31
2018-09-06T02:33:12.578Z,95252.59
2018-09-06T02:35:41.197Z,95247.19
2018-09-06T02:38:09.605Z,95247.85
2018-09-06T02:40:39.857Z,95239.83
2018-09-06T02:43:10.469Z,95237.86
2018-09-06T02:45:38.983Z,95229.98
2018-09-06T02:48:07.393Z,95225.28
2018-09-06T02:51:43.989Z,95222.13
2018-09-06T02:54:12.425Z,95225.58
2018-09-06T02:56:40.809Z,95211.50
2018-09-06T02:59:09.233Z,95216.75
2018-09-06T03:01:37.617Z,95209.84
2018-09-06T03:04:06.079Z,95220.34
2018-09-06T03:06:34.508Z,95209.34
2018-09-06T03:09:02.977Z,95215.08
2018-09-06T03:11:36.705Z,95223.96
2018-09-06T03:14:05.209Z,95216.39
2018-09-06T03:16:33.858Z,95210.34
2018-09-06T03:19:02.246Z,95213.82
2018-09-06T03:21:30.706Z,95218.57
2018-09-06T03:23:59.081Z,95222.02
2018-09-06T03:26:27.494Z,95219.89
2018-09-06T03:28:55.925Z,95216.79
2018-09-06T03:31:24.357Z,95217.80
2018-09-06T03:33:52.749Z,95212.67
2018-09-06T03:36:21.174Z,95213.48
2018-09-06T03:38:49.562Z,95216.77
2018-09-06T03:41:17.998Z,95213.80
2018-09-06T03:43:46.406Z,95213.03
2018-09-06T03:46:14.864Z,95223.03
2018-09-06T03:48:43.258Z,95213.67
2018-09-06T03:51:11.709Z,95224.15
2018-09-06T03:53:40.129Z,95212.51
2018-09-06T03:56:08.589Z,95221.57
2018-09-06T03:58:36.993Z,95219.76
2018-09-06T04:01:05.388Z,95212.69
2018-09-06T04:03:33.801Z,95214.31
2018-09-06T04:06:02.181Z,95212.69
2018-09-06T04:08:30.586Z,95219.77
2018-09-06T04:10:58.964Z,95219.14
2018-09-06T04:13:27.377Z,95209.91
2018-09-06T04:15:55.760Z,95218.62
2018-09-06T04:18:24.260Z,95219.14
2018-09-06T04:20:52.645Z,95219.12
2018-09-06T04:23:21.100Z,95226.00
2018-09-06T04:25:49.510Z,95226.66
2018-09-06T04:28:17.973Z,95215.34
2018-09-06T04:30:46.393Z,95218.15
2018-09-06T04:33:14.814Z,95217.17
2018-09-06T04:35:43.257Z,95215.71
2018-09-06T04:38:11.682Z,95205.23
2018-09-06T04:40:40.057Z,95212.91
2018-09-06T04:43:08.487Z,95203.91
2018-09-06T04:45:36.886Z,95210.62
2018-09-06T04:48:05.621Z,95211.45
2018-09-06T04:50:34.067Z,95208.34
2018-09-06T04:53:02.558Z,95214.41
2018-09-06T04:55:30.950Z,95209.64
2018-09-06T04:57:59.338Z,95213.38
2018-09-06T05:00:27.760Z,95215.70
2018-09-06T05:02:56.161Z,95220.95
2018-09-06T05:05:24.621Z,95213.39
2018-09-06T05:07:52.997Z,95220.77
2018-09-06T05:10:21.425Z,95214.70
2018-09-06T05:12:49.828Z,95218.82
2018-09-06T05:15:18.294Z,95216.53
2018-09-06T05:17:46.674Z,95216.70
2018-09-06T05:20:15.126Z,95209.80
2018-09-06T05:22:43.546Z,95210.29
2018-09-06T05:25:12.011Z,95213.59
2018-09-06T05:27:40.393Z,95211.78
2018-09-06T05:30:08.845Z,95211.78
2018-09-06T05:32:37.254Z,95206.84
2018-09-06T05:35:05.776Z,95206.17
2018-09-06T05:37:34.148Z,95212.06
2018-09-06T05:40:02.578Z,95203.02
2018-09-06T05:42:30.992Z,95205.61
2018-09-06T05:44:59.425Z,95205.45
2018-09-06T05:47:27.841Z,95214.00
2018-09-06T05:49:56.245Z,95207.06
2018-09-06T05:52:24.666Z,95208.39
2018-09-06T05:54:53.049Z,95210.66
2018-09-06T05:57:21.850Z,95217.09
2018-09-06T05:59:50.255Z,95216.97
2018-09-06T06:02:18.690Z,95220.11
2018-09-06T06:04:47.085Z,95218.14
2018-09-06T06:07:15.505Z,95220.24
2018-09-06T06:09:43.889Z,95225.83
2018-09-06T06:12:12.329Z,95228.78
2018-09-06T06:14:40.725Z,95225.98
2018-09-06T06:17:09.194Z,95225.98
2018-09-06T06:19:37.629Z,95226.43
2018-09-06T06:22:06.056Z,95228.20
2018-09-06T06:24:34.456Z,95226.59
2018-09-06T06:27:02.885Z,95226.89
2018-09-06T06:29:31.297Z,95228.00
2018-09-06T06:31:59.702Z,95231.77
2018-09-06T06:34:28.076Z,95235.68
2018-09-06T06:36:56.601Z,95234.03
2018-09-06T06:39:25.020Z,95237.80
2018-09-06T06:41:53.434Z,95232.20
2018-09-06T06:44:21.873Z,95232.34
2018-09-06T06:46:50.253Z,95231.64
2018-09-06T06:49:18.670Z,95233.23
2018-09-06T06:51:47.090Z,95226.58
2018-09-06T06:54:15.540Z,95221.44
2018-09-06T06:56:43.915Z,95218.75
2018-09-06T06:59:12.349Z,95218.12
2018-09-06T07:01:40.725Z,95213.00
2018-09-06T07:06:43.669Z,95204.51
2018-09-06T07:09:12.365Z,95208.76
2018-09-06T07:11:40.769Z,95207.09
2018-09-06T07:14:09.197Z,95211.75
2018-09-06T07:16:37.581Z,95206.13
2018-09-06T07:19:06.072Z,95204.30
2018-09-06T07:21:34.480Z,95209.16
2018-09-06T07:24:02.905Z,95205.63
2018-09-06T07:26:31.329Z,95204.47
2018-09-06T07:28:59.798Z,95203.05
2018-09-06T07:31:28.218Z,95196.92
2018-09-06T07:33:56.621Z,95192.17
2018-09-06T07:36:25.057Z,95191.74
2018-09-06T07:38:53.449Z,95196.15
2018-09-06T07:41:21.910Z,95195.21
2018-09-06T07:43:50.312Z,95183.89
2018-09-06T07:46:18.802Z,95185.18
2018-09-06T07:48:47.181Z,95191.80
2018-09-06T07:51:15.629Z,95188.45
2018-09-06T07:53:44.005Z,95187.01
2018-09-06T07:56:12.433Z,95178.67
2018-09-06T07:58:40.829Z,95183.25
2018-09-06T08:01:09.286Z,95185.27
2018-09-06T08:03:37.721Z,95177.59
2018-09-06T08:06:06.178Z,95171.98
2018-09-06T08:08:34.581Z,95169.54
2018-09-06T08:11:02.993Z,95172.95
2018-09-06T08:13:31.370Z,95169.84
2018-09-06T08:15:59.834Z,95177.42
2018-09-06T08:18:28.221Z,95175.51
2018-09-06T08:21:03.413Z,95175.56
2018-09-06T08:23:31.852Z,95174.80
2018-09-06T08:26:00.289Z,95170.41
2018-09-06T08:28:28.661Z,95173.72
2018-09-06T08:30:57.203Z,95176.83
2018-09-06T08:33:25.502Z,95172.51
2018-09-06T08:35:53.902Z,95175.12
2018-09-06T08:38:28.617Z,95174.03
2018-09-06T08:40:57.018Z,95178.19
2018-09-06T08:43:25.517Z,95177.10
2018-09-06T08:45:53.963Z,95176.48
2018-09-06T08:48:22.409Z,95179.36
2018-09-06T08:50:50.846Z,95179.24
2018-09-06T08:53:19.313Z,95179.91
2018-09-06T08:55:47.757Z,95180.66
2018-09-06T08:58:16.175Z,95178.66
2018-09-06T09:00:48.713Z,95170.84
2018-09-06T09:03:17.211Z,95181.13
2018-09-06T09:05:45.637Z,95173.66
2018-09-06T09:08:14.217Z,95173.23
2018-09-06T09:10:42.626Z,95172.02
2018-09-06T09:13:11.162Z,95164.28
2018-09-06T09:15:39.530Z,95163.45
2018-09-06T09:18:07.954Z,95166.41
2018-09-06T09:20:36.389Z,95161.83
2018-09-06T09:23:04.846Z,95157.66
2018-09-06T09:25:33.297Z,95154.68
2018-09-06T09:28:01.732Z,95152.45
2018-09-06T09:30:30.182Z,95150.00
2018-09-06T09:32:58.609Z,95153.98
2018-09-06T09:35:27.091Z,95145.20
2018-09-06T09:37:55.501Z,95148.84
2018-09-06T09:40:23.977Z,95141.32
2018-09-06T09:42:52.384Z,95135.68
2018-09-06T09:45:20.862Z,95141.70
2018-09-06T09:47:49.281Z,95143.55
2018-09-06T09:52:46.215Z,95133.27
2018-09-06T09:55:14.649Z,95129.41
2018-09-06T09:57:43.082Z,95128.25
2018-09-06T10:18:26.477Z,95108.98
2018-09-06T10:20:54.933Z,95110.88
2018-09-06T10:23:23.474Z,95108.91
2018-09-06T10:25:51.906Z,95103.77
2018-09-06T10:28:20.398Z,95097.23
2018-09-06T10:30:48.853Z,95092.70
2018-09-06T10:33:17.244Z,95094.41
2018-09-06T10:35:45.714Z,95092.20
2018-09-06T10:38:14.133Z,95094.98
2018-09-06T10:40:42.614Z,95100.38
2018-09-06T10:43:11.054Z,95089.17
2018-09-06T10:45:39.534Z,95083.80
2018-09-06T10:48:07.966Z,95090.50
2018-09-06T10:50:36.478Z,95087.44
2018-09-06T10:53:04.901Z,95087.94
2018-09-06T10:55:33.337Z,95081.15
2018-09-06T10:58:01.791Z,95080.08
2018-09-06T11:00:30.327Z,95077.39
2018-09-06T11:02:59.321Z,95078.12
2018-09-06T11:05:27.793Z,95076.09
2018-09-06T11:07:56.288Z,95074.05
2018-09-06T11:10:24.741Z,95073.22
2018-09-06T11:12:53.157Z,95075.15
2018-09-06T11:15:22.594Z,95073.03
2018-09-06T11:17:51.007Z,95067.32
2018-09-06T11:20:23.110Z,95066.44
2018-09-06T11:22:51.517Z,95066.53
2018-09-06T11:25:20.186Z,95059.36
2018-09-06T11:27:48.610Z,95053.61
2018-09-06T11:30:17.014Z,95053.30
2018-09-06T11:32:45.467Z,95056.17
2018-09-06T11:35:13.934Z,95054.47
2018-09-06T11:37:42.644Z,95053.05
2018-09-06T11:40:11.086Z,95042.44
2018-09-06T11:42:39.531Z,95043.54
2018-09-06T11:45:08.014Z,95047.30
2018-09-06T11:47:36.511Z,95043.77
2018-09-06T11:50:06.036Z,95037.82
2018-09-06T11:52:34.489Z,95036.50
2018-09-06T11:55:02.975Z,95034.03
2018-09-06T11:57:31.464Z,95025.88
2018-09-06T11:59:59.915Z,95028.27
2018-09-06T12:02:28.414Z,95028.32
2018-09-06T12:04:56.825Z,95013.64
2018-09-06T12:07:25.272Z,95014.75
2018-09-06T12:09:53.702Z,95008.92
2018-09-06T12:12:22.606Z,95002.84
2018-09-06T12:14:51.053Z,95009.23
2018-09-06T12:17:19.517Z,95004.94
2018-09-06T12:19:47.960Z,94998.72
2018-09-06T12:22:16.414Z,94997.77
2018-09-06T12:24:44.957Z,94996.39
2018-09-06T12:27:13.593Z,94996.79
2018-09-06T12:29:42.133Z,94989.62
2018-09-06T12:32:10.558Z,94989.73
2018-09-06T12:34:39.037Z,94985.34
2018-09-06T12:37:12.896Z,94983.37
2018-09-06T12:44:55.289Z,94981.20
2018-09-06T12:47:23.749Z,94978.26
2018-09-06T12:49:52.334Z,94983.73
2018-09-06T12:52:20.786Z,94969.89
2018-09-06T12:54:49.289Z,94968.33
2018-09-06T12:57:17.749Z,94971.16
2018-09-06T12:59:46.202Z,94969.84
2018-09-06T13:04:49.757Z,94968.41
2018-09-06T13:07:18.215Z,94965.02
2018-09-06T13:09:46.648Z,94967.80
2018-09-06T13:12:15.251Z,94964.63
2018-09-06T13:14:43.662Z,94963.23
2018-09-06T13:17:12.190Z,94962.64
2018-09-06T13:19:40.597Z,94958.89
2018-09-06T13:22:09.196Z,94958.49
2018-09-06T13:24:37.583Z,94948.02
2018-09-06T13:27:06.007Z,94954.81
2018-09-06T13:29:34.448Z,94949.41
2018-09-06T13:32:02.893Z,94943.88
2018-09-06T13:34:31.354Z,94936.70
2018-09-06T13:36:59.767Z,94934.30
2018-09-06T13:44:35.901Z,94928.23
2018-09-06T13:47:04.433Z,94935.37
2018-09-06T13:49:33.011Z,94928.61
2018-09-06T13:52:01.493Z,94928.36
2018-09-06T13:54:32.689Z,94931.73
2018-09-06T13:57:01.072Z,94923.97
2018-09-06T13:59:29.537Z,94924.05
2018-09-06T14:01:58.013Z,94913.40
2018-09-06T14:04:26.477Z,94915.81
2018-09-06T14:06:54.886Z,94909.91
2018-09-06T14:12:04.500Z,94905.50
2018-09-06T14:14:32.990Z,94902.23
2018-09-06T14:17:01.713Z,94898.16
2018-09-06T14:19:30.195Z,94892.03
2018-09-06T14:21:58.613Z,94889.23
2018-09-06T14:24:27.040Z,94882.98
2018-09-06T14:26:55.473Z,94883.97
2018-09-06T14:29:23.877Z,94882.47
2018-09-06T14:31:52.324Z,94884.88
2018-09-06T14:34:20.747Z,94886.55
2018-09-06T14:36:49.196Z,94879.69
2018-09-06T14:39:17.598Z,94879.79
2018-09-06T14:41:46.050Z,94878.87
2018-09-06T14:44:14.441Z,94870.41
2018-09-06T14:46:42.877Z,94874.02
2018-09-06T14:49:11.262Z,94872.74
2018-09-06T14:51:39.730Z,94872.45
2018-09-06T14:54:08.130Z,94865.64
2018-09-06T14:56:36.560Z,94866.13
2018-09-06T14:59:05.001Z,94859.00
2018-09-06T15:01:33.529Z,94864.73
2018-09-06T15:04:01.857Z,94862.89
2018-09-06T15:06:30.279Z,94870.33
2018-09-06T15:08:58.662Z,94864.03
2018-09-06T15:11:27.097Z,94861.75
2018-09-06T15:13:55.595Z,94864.87
2018-09-06T15:16:23.982Z,94864.23
2018-09-06T15:18:52.391Z,94868.61
2018-09-06T15:21:20.838Z,94859.05
2018-09-06T15:23:49.236Z,94851.84
2018-09-06T15:26:17.641Z,94851.88
2018-09-06T15:28:46.074Z,94842.11
2018-09-06T15:31:14.474Z,94851.56
2018-09-06T15:33:42.994Z,94846.27
2018-09-06T15:36:11.422Z,94842.20
2018-09-06T15:38:40.125Z,94835.67
2018-09-06T15:41:08.514Z,94830.60
2018-09-06T15:43:36.925Z,94833.97
2018-09-06T15:46:05.402Z,94831.08
2018-09-06T15:48:33.829Z,94828.61
2018-09-06T15:51:02.338Z,94828.13
2018-09-06T15:53:30.833Z,94824.93
2018-09-06T15:55:59.249Z,94832.66
2018-09-06T15:58:27.838Z,94824.91
2018-09-06T16:00:56.311Z,94829.27
2018-09-06T16:03:24.890Z,94831.45
2018-09-06T16:05:53.313Z,94825.66
2018-09-06T16:08:21.748Z,94827.00
2018-09-06T16:10:50.197Z,94824.69
2018-09-06T16:13:18.714Z,94826.98
2018-09-06T16:15:47.111Z,94826.50
2018-09-06T16:18:15.547Z,94826.88
2018-09-06T16:20:43.966Z,94824.11
2018-09-06T16:23:12.354Z,94805.86
2018-09-06T16:25:41.537Z,94816.08
2018-09-06T16:28:10.173Z,94818.20
2018-09-06T16:33:12.237Z,94822.28
2018-09-06T16:35:40.686Z,94818.34
2018-09-06T16:38:09.097Z,94821.44
2018-09-06T16:43:11.321Z,94831.36
2018-09-06T16:45:39.743Z,94833.87
2018-09-06T16:48:08.234Z,94832.62
2018-09-06T16:53:10.501Z,94833.69
2018-09-06T16:55:39.316Z,94834.77
2018-09-06T16:58:07.714Z,94840.70
2018-09-06T17:03:10.170Z,94838.19
2018-09-06T17:05:38.697Z,94837.28
2018-09-06T17:08:07.141Z,94832.39
2018-09-06T17:10:35.555Z,94832.53
2018-09-06T17:13:04.037Z,94834.85
2018-09-06T17:15:32.437Z,94832.87
2018-09-06T17:18:00.915Z,94834.25
2018-09-06T17:20:29.338Z,94832.89
2018-09-06T17:22:57.732Z,94835.11
2018-09-06T17:25:26.173Z,94840.05
2018-09-06T17:27:54.595Z,94841.03
2018-09-06T17:30:29.689Z,94846.48
2018-09-06T17:32:58.105Z,94845.59
2018-09-06T17:35:28.494Z,94856.65
2018-09-06T17:37:56.912Z,94852.81
2018-09-06T17:40:25.334Z,94849.52
2018-09-06T17:42:53.765Z,94855.74
2018-09-06T17:45:22.229Z,94853.66
2018-09-06T17:47:50.612Z,94847.70
2018-09-06T17:50:19.082Z,94843.33
2018-09-06T17:52:47.550Z,94850.10
2018-09-06T17:55:16.042Z,94849.48
2018-09-06T17:57:44.469Z,94854.52
2018-09-06T18:00:13.009Z,94856.94
2018-09-06T18:02:41.429Z,94851.86
2018-09-06T18:05:11.560Z,94857.41
2018-09-06T18:07:40.049Z,94864.25
2018-09-06T18:12:42.462Z,94856.59
2018-09-06T18:15:10.842Z,94861.02
2018-09-06T18:17:39.371Z,94865.77
2018-09-06T18:20:07.786Z,94866.08
2018-09-06T18:22:36.349Z,94870.78
2018-09-06T18:25:04.913Z,94883.22
2018-09-06T18:27:33.385Z,94887.41
2018-09-06T18:30:01.898Z,94893.84
2018-09-06T18:32:30.361Z,94896.34
2018-09-06T18:34:58.840Z,94897.84
2018-09-06T18:37:27.299Z,94893.72
2018-09-06T18:45:05.240Z,94892.92
2018-09-06T18:47:34.036Z,94894.37
2018-09-06T18:50:02.477Z,94897.72
2018-09-06T18:52:32.155Z,94902.05
2018-09-06T18:55:00.739Z,94914.97
2018-09-06T18:57:29.389Z,94918.43
2018-09-06T18:59:57.921Z,94931.67
2018-09-06T19:02:26.465Z,94932.10
2018-09-06T19:04:55.577Z,94929.16
2018-09-06T19:07:24.329Z,94930.39
2018-09-06T19:15:01.198Z,94938.15
2018-09-06T19:17:30.166Z,94934.30
2018-09-06T19:19:59.247Z,94946.70
2018-09-06T19:22:27.706Z,94959.59
2018-09-06T19:24:56.682Z,94972.36
2018-09-06T19:27:25.354Z,94974.27
2018-09-06T19:29:53.895Z,94974.45
2018-09-06T19:32:22.847Z,94986.55
2018-09-06T19:34:51.350Z,94985.72
2018-09-06T19:37:19.920Z,94989.23
2018-09-06T19:39:48.837Z,94983.31
2018-09-06T19:42:17.337Z,94982.55
2018-09-06T19:44:46.025Z,94989.73
2018-09-06T19:47:15.053Z,94992.25
2018-09-06T19:49:43.707Z,94992.50
2018-09-06T19:52:12.706Z,95002.16
2018-09-06T19:54:44.074Z,94989.70
2018-09-06T19:57:13.094Z,94995.14
2018-09-06T19:59:42.466Z,94991.09
2018-09-06T20:02:10.972Z,94984.77
2018-09-06T20:04:39.605Z,94984.91
2018-09-06T20:07:08.330Z,94979.88
2018-09-06T20:09:38.100Z,94977.64
2018-09-06T20:12:06.715Z,94977.69
2018-09-06T20:14:35.609Z,94969.85
2018-09-06T20:17:05.358Z,94968.94
2018-09-06T20:19:34.239Z,94966.80
2018-09-06T20:22:02.727Z,94959.52
2018-09-06T20:24:31.411Z,94960.63
2018-09-06T20:27:00.210Z,94961.45
2018-09-06T20:29:28.684Z,94961.78
2018-09-06T20:31:57.212Z,94962.37
2018-09-06T20:34:25.599Z,94962.22
2018-09-06T20:36:54.076Z,94963.37
2018-09-06T20:39:22.599Z,94965.80
2018-09-06T20:41:51.090Z,94973.11
2018-09-06T20:44:19.507Z,94971.07
2018-09-06T20:46:47.939Z,94973.81
2018-09-06T20:49:16.617Z,94984.51
2018-09-06T20:51:46.124Z,94977.22
2018-09-06T20:54:14.559Z,94981.33
2018-09-06T20:56:43.010Z,94980.44
2018-09-06T20:59:11.501Z,94989.22
2018-09-06T21:01:39.972Z,94981.47
2018-09-06T21:04:08.538Z,94977.33
2018-09-06T21:06:37.009Z,94975.03
2018-09-06T21:11:40.766Z,94978.00
2018-09-06T21:14:09.225Z,94971.17
2018-09-06T21:16:37.616Z,94971.30
2018-09-06T21:19:06.097Z,94971.98
2018-09-06T21:21:34.513Z,94973.80
2018-09-06T21:24:02.908Z,94979.89
2018-09-06T21:26:31.326Z,94975.12
2018-09-06T21:28:59.713Z,94977.33
2018-09-06T21:31:28.133Z,94973.09
2018-09-06T21:33:56.537Z,94973.78
2018-09-06T21:36:25.970Z,94969.84
2018-09-06T21:38:54.361Z,94971.17
2018-09-06T21:41:22.898Z,94971.03
2018-09-06T21:43:51.317Z,94972.21
2018-09-06T21:46:19.721Z,94978.02
2018-09-06T21:59:28.105Z,94997.80
2018-09-06T22:01:56.609Z,94992.97
2018-09-06T22:04:25.036Z,94993.54
2018-09-06T22:06:53.437Z,94992.75
2018-09-06T22:09:21.932Z,95001.76
2018-09-06T22:11:50.369Z,94999.52
2018-09-06T22:14:18.870Z,94990.39
2018-09-06T22:16:47.265Z,94990.06
2018-09-06T22:19:15.725Z,94998.62
2018-09-06T22:21:44.333Z,94995.50
2018-09-06T22:24:12.788Z,94995.61
2018-09-06T22:26:42.253Z,94994.34
2018-09-06T22:29:10.681Z,94988.75
2018-09-06T22:31:39.181Z,95000.45
2018-09-06T22:34:07.633Z,94995.35
2018-09-06T22:36:36.026Z,94993.66
2018-09-06T22:39:06.001Z,95005.82
2018-09-06T22:41:34.685Z,95006.80
2018-09-06T22:44:03.110Z,95002.52
2018-09-06T22:46:31.720Z,95004.69
2018-09-06T22:49:00.169Z,95012.24
2018-09-06T22:51:28.601Z,95016.07
2018-09-06T22:53:57.025Z,95020.34
2018-09-06T22:56:25.483Z,95012.54
2018-09-06T22:58:53.951Z,95026.34
2018-09-06T23:01:22.393Z,95027.23
2018-09-06T23:03:53.297Z,95028.59
2018-09-06T23:06:23.734Z,95020.38
2018-09-06T23:08:52.754Z,95024.50
2018-09-06T23:11:21.299Z,95025.08
2018-09-06T23:13:50.138Z,95027.88
2018-09-06T23:16:19.270Z,95022.60
2018-09-06T23:18:54.548Z,95027.23
2018-09-06T23:21:23.479Z,95021.21
2018-09-06T23:23:52.056Z,95022.04
2018-09-06T23:26:20.717Z,95024.19
2018-09-06T23:28:56.041Z,95014.69
2018-09-06T23:31:24.559Z,95013.09
2018-09-06T23:33:53.196Z,95013.09
2018-09-06T23:36:23.598Z,95005.52
2018-09-06T23:38:58.943Z,95003.55
2018-09-06T23:41:28.331Z,95006.34
2018-09-06T23:43:56.867Z,95000.27
2018-09-06T23:46:25.570Z,95002.72
2018-09-06T23:48:54.090Z,95002.89
2018-09-06T23:51:22.542Z,95002.89
2018-09-06T23:53:50.990Z,95002.25
2018-09-06T23:56:19.406Z,95012.54
2018-09-06T23:58:47.909Z,95009.59
